Time;durP1;ratioP1;P1;durP2;ratioP2;P2;SDS_P1;SDS_P2;PMS_P1;PMS_P2;Temp;Humidity;BMP_temperature;BMP_pressure;BME280_temperature;BME280_humidity;BME280_pressure;Samples;Min_cycle;Max_cycle;Signal;HPM_P1;HPM_P2
2022/05/12 00:00:35;;;;;;;3.05;2.80;;;;;;;;;;5003060;28;20047;-82
2022/05/12 00:03:06;;;;;;;11.60;3.53;;;;;;;;;;5004726;28;20053;-82
2022/05/12 00:05:33;;;;;;;5.05;2.65;;;;;;;;;;5003765;28;20085;-82
2022/05/12 00:08:00;;;;;;;4.88;2.80;;;;;;;;;;5003121;28;20435;-82
2022/05/12 00:10:28;;;;;;;3.95;2.42;;;;;;;;;;5004959;28;20046;-82
2022/05/12 00:12:57;;;;;;;5.72;3.13;;;;;;;;;;5002269;28;20053;-82
2022/05/12 00:15:26;;;;;;;4.13;2.65;;;;;;;;;;5003551;28;20049;-82
2022/05/12 00:17:54;;;;;;;4.93;3.00;;;;;;;;;;5003454;28;20070;-83
2022/05/12 00:20:22;;;;;;;5.30;2.53;;;;;;;;;;5004010;28;20464;-82
2022/05/12 00:22:50;;;;;;;2.92;2.50;;;;;;;;;;5003481;28;20085;-82
2022/05/12 00:25:21;;;;;;;4.32;2.83;;;;;;;;;;5004098;28;20050;-82
2022/05/12 00:27:49;;;;;;;4.75;2.83;;;;;;;;;;5006928;28;20129;-82
2022/05/12 00:30:16;;;;;;;3.00;2.80;;;;;;;;;;5005073;28;20050;-82
2022/05/12 00:32:45;;;;;;;4.50;2.75;;;;;;;;;;5004507;28;20062;-82
2022/05/12 00:35:13;;;;;;;7.38;2.90;;;;;;;;;;5007574;28;20548;-82
2022/05/12 00:37:41;;;;;;;5.22;2.92;;;;;;;;;;5005951;28;20074;-82
2022/05/12 00:40:09;;;;;;;4.47;2.95;;;;;;;;;;5005643;28;20050;-82
2022/05/12 00:42:36;;;;;;;6.82;3.10;;;;;;;;;;5005254;28;20054;-81
2022/05/12 00:45:04;;;;;;;6.15;3.42;;;;;;;;;;5006924;28;20057;-83
2022/05/12 00:47:32;;;;;;;3.85;3.33;;;;;;;;;;5008418;28;20380;-82
2022/05/12 00:49:59;;;;;;;4.50;3.30;;;;;;;;;;5006280;28;20051;-82
2022/05/12 00:52:29;;;;;;;5.53;3.40;;;;;;;;;;5006931;28;20046;-82
2022/05/12 00:55:07;;;;;;;5.47;3.35;;;;;;;;;;5007451;28;20451;-83
2022/05/12 00:57:39;;;;;;;14.07;3.53;;;;;;;;;;5009435;28;20070;-82
2022/05/12 01:00:08;;;;;;;5.07;3.20;;;;;;;;;;5008178;28;20419;-83
2022/05/12 01:02:36;;;;;;;5.60;3.38;;;;;;;;;;5008668;28;20084;-82
2022/05/12 01:05:04;;;;;;;3.70;3.40;;;;;;;;;;5008750;28;20058;-83
2022/05/12 01:07:32;;;;;;;3.83;3.30;;;;;;;;;;5010065;28;20047;-82
2022/05/12 01:10:03;;;;;;;5.15;3.58;;;;;;;;;;5009161;28;20511;-83
2022/05/12 01:12:40;;;;;;;8.13;3.63;;;;;;;;;;5009958;28;20050;-83
2022/05/12 01:15:08;;;;;;;13.25;4.03;;;;;;;;;;5016391;23;20704;-93
2022/05/12 01:17:49;;;;;;;6.07;3.95;;;;;;;;;;5013089;28;20103;-94
2022/05/12 01:20:16;;;;;;;5.40;3.55;;;;;;;;;;5013939;28;20132;-95
2022/05/12 01:22:52;;;;;;;6.65;3.60;;;;;;;;;;5014351;28;20536;-96
2022/05/12 01:25:21;;;;;;;9.85;3.47;;;;;;;;;;5014293;28;20103;-93
2022/05/12 01:27:48;;;;;;;10.95;4.15;;;;;;;;;;5014016;28;20516;-93
2022/05/12 01:30:18;;;;;;;7.93;3.30;;;;;;;;;;5014862;28;20522;-95
2022/05/12 01:32:46;;;;;;;3.67;3.40;;;;;;;;;;5013896;28;20573;-94
2022/05/12 01:35:14;;;;;;;5.43;3.97;;;;;;;;;;5013872;28;20295;-94
2022/05/12 01:37:43;;;;;;;8.35;3.80;;;;;;;;;;5014396;28;20125;-94
2022/05/12 01:40:12;;;;;;;8.32;4.00;;;;;;;;;;5014013;28;20045;-94
2022/05/12 01:42:39;;;;;;;5.63;4.20;;;;;;;;;;5013818;28;20056;-95
2022/05/12 01:45:10;;;;;;;10.88;3.92;;;;;;;;;;5013678;28;20121;-95
2022/05/12 01:47:40;;;;;;;4.43;4.03;;;;;;;;;;5014138;28;20517;-94
2022/05/12 01:50:09;;;;;;;7.68;4.00;;;;;;;;;;5014902;28;20073;-95
2022/05/12 01:52:39;;;;;;;7.22;3.60;;;;;;;;;;5014997;28;20489;-94
2022/05/12 01:55:07;;;;;;;8.43;4.25;;;;;;;;;;5014144;28;20049;-94
2022/05/12 01:57:36;;;;;;;7.50;4.38;;;;;;;;;;5015385;28;20490;-95
2022/05/12 02:00:04;;;;;;;9.73;4.45;;;;;;;;;;5013464;28;20077;-91
2022/05/12 02:02:32;;;;;;;4.45;4.05;;;;;;;;;;5013961;28;20125;-94
2022/05/12 02:05:13;;;;;;;7.47;3.80;;;;;;;;;;5013038;28;20145;-94
2022/05/12 02:07:45;;;;;;;5.90;3.45;;;;;;;;;;4997475;28;20058;-95
2022/05/12 02:10:16;;;;;;;4.05;3.60;;;;;;;;;;5013134;28;20049;-94
2022/05/12 02:12:43;;;;;;;3.90;3.28;;;;;;;;;;5013131;28;20077;-95
2022/05/12 02:15:11;;;;;;;7.10;3.40;;;;;;;;;;5014238;28;20054;-95
2022/05/12 02:17:39;;;;;;;3.50;3.15;;;;;;;;;;4997207;28;20049;-95
2022/05/12 02:20:10;;;;;;;4.75;3.17;;;;;;;;;;5012946;28;20067;-96
2022/05/12 02:22:38;;;;;;;8.48;3.22;;;;;;;;;;5013539;28;20132;-94
2022/05/12 02:25:05;;;;;;;3.42;2.85;;;;;;;;;;5012687;28;20137;-96
2022/05/12 02:27:34;;;;;;;4.05;2.47;;;;;;;;;;5013985;28;20414;-95
2022/05/12 02:30:01;;;;;;;8.55;2.90;;;;;;;;;;5012990;28;20081;-94
2022/05/12 02:32:32;;;;;;;4.78;2.63;;;;;;;;;;5012810;28;20046;-95
2022/05/12 02:35:00;;;;;;;2.80;2.55;;;;;;;;;;5012399;28;20136;-94
2022/05/12 02:37:27;;;;;;;3.45;2.85;;;;;;;;;;5012762;28;20085;-94
2022/05/12 02:39:55;;;;;;;5.22;2.78;;;;;;;;;;5013061;28;20077;-95
2022/05/12 02:42:22;;;;;;;5.07;2.53;;;;;;;;;;5012771;28;20128;-95
2022/05/12 02:44:50;;;;;;;6.53;2.85;;;;;;;;;;5013300;28;20053;-95
2022/05/12 02:47:19;;;;;;;3.47;2.25;;;;;;;;;;5014401;28;20114;-93
2022/05/12 02:49:47;;;;;;;4.93;2.33;;;;;;;;;;5018143;28;20022;-95
2022/05/12 02:52:14;;;;;;;3.88;2.47;;;;;;;;;;5035357;28;20033;-95
2022/05/12 02:54:41;;;;;;;2.90;2.10;;;;;;;;;;5014116;28;20458;-93
2022/05/12 02:57:08;;;;;;;3.55;2.40;;;;;;;;;;5013440;28;20068;-95
2022/05/12 02:59:37;;;;;;;9.32;2.45;;;;;;;;;;5013205;28;20128;-95
2022/05/12 03:02:06;;;;;;;4.00;2.30;;;;;;;;;;5012594;28;20089;-95
2022/05/12 03:04:34;;;;;;;4.30;2.38;;;;;;;;;;4996430;28;20057;-94
2022/05/12 03:07:01;;;;;;;2.53;2.33;;;;;;;;;;5012763;28;20085;-94
2022/05/12 03:09:30;;;;;;;2.67;2.25;;;;;;;;;;5012758;28;20146;-94
2022/05/12 03:11:58;;;;;;;3.05;2.47;;;;;;;;;;5012245;28;20117;-94
2022/05/12 03:14:25;;;;;;;7.97;2.13;;;;;;;;;;5012067;28;20565;-93
2022/05/12 03:16:53;;;;;;;3.75;2.38;;;;;;;;;;5013451;28;20054;-92
2022/05/12 03:19:21;;;;;;;3.40;2.38;;;;;;;;;;5012817;28;20506;-94
2022/05/12 03:21:48;;;;;;;11.27;2.97;;;;;;;;;;5012876;28;20052;-95
2022/05/12 03:24:16;;;;;;;4.88;2.90;;;;;;;;;;5012546;28;20081;-94
2022/05/12 03:26:44;;;;;;;6.47;2.60;;;;;;;;;;5012899;28;20046;-93
2022/05/12 03:29:11;;;;;;;2.58;2.35;;;;;;;;;;5012079;28;20054;-92
2022/05/12 03:31:38;;;;;;;5.20;2.75;;;;;;;;;;5012794;28;20089;-94
2022/05/12 03:34:06;;;;;;;6.13;2.60;;;;;;;;;;5012191;28;20056;-94
2022/05/12 03:36:35;;;;;;;9.23;3.38;;;;;;;;;;5012164;28;20125;-94
2022/05/12 03:39:04;;;;;;;4.47;2.75;;;;;;;;;;5014215;28;20081;-94
2022/05/12 03:41:31;;;;;;;3.30;2.95;;;;;;;;;;5015922;28;20081;-94
2022/05/12 03:46:45;;;;;;;5.38;4.85;;;;;;;;;;5017000;28;20081;-94
2022/05/12 03:49:14;;;;;;;4.65;4.07;;;;;;;;;;5016254;28;20060;-93
2022/05/12 03:51:41;;;;;;;3.72;3.05;;;;;;;;;;5016145;28;20073;-94
2022/05/12 03:54:08;;;;;;;4.97;3.13;;;;;;;;;;5017382;28;20054;-93
2022/05/12 03:56:35;;;;;;;4.25;3.28;;;;;;;;;;5016944;28;20054;-91
2022/05/12 03:59:03;;;;;;;3.78;3.40;;;;;;;;;;5015852;28;20138;-94
2022/05/12 04:01:31;;;;;;;4.05;3.08;;;;;;;;;;5015819;28;20054;-92
2022/05/12 04:03:58;;;;;;;11.90;7.63;;;;;;;;;;5015809;28;20063;-93
2022/05/12 04:06:26;;;;;;;10.45;6.93;;;;;;;;;;5015411;28;20062;-93
2022/05/12 04:08:53;;;;;;;11.00;6.60;;;;;;;;;;5015986;28;20046;-94
2022/05/12 04:11:20;;;;;;;12.88;6.75;;;;;;;;;;5015268;28;20058;-93
2022/05/12 04:13:48;;;;;;;11.60;5.85;;;;;;;;;;5015355;28;20069;-93
2022/05/12 04:16:15;;;;;;;10.73;5.47;;;;;;;;;;5016284;28;20140;-94
2022/05/12 04:18:43;;;;;;;9.23;5.85;;;;;;;;;;5015397;28;20578;-93
2022/05/12 04:21:10;;;;;;;14.80;4.88;;;;;;;;;;5015296;28;20391;-93
2022/05/12 04:23:38;;;;;;;9.20;5.00;;;;;;;;;;5016630;28;20129;-93
2022/05/12 04:26:05;;;;;;;10.50;4.38;;;;;;;;;;5016519;28;20142;-93
2022/05/12 04:28:34;;;;;;;6.05;4.60;;;;;;;;;;5036376;28;20063;-91
2022/05/12 04:31:02;;;;;;;16.27;5.28;;;;;;;;;;5021840;28;20049;-93
2022/05/12 04:36:19;;;;;;;12.65;6.10;;;;;;;;;;5015366;28;20136;-94
2022/05/12 04:38:46;;;;;;;8.75;6.38;;;;;;;;;;5015020;28;20085;-94
2022/05/12 04:41:15;;;;;;;9.05;7.40;;;;;;;;;;5014849;28;20104;-93
2022/05/12 04:43:42;;;;;;;10.40;7.05;;;;;;;;;;5014857;28;20117;-93
2022/05/12 04:46:10;;;;;;;10.85;5.90;;;;;;;;;;5014481;28;20141;-92
2022/05/12 04:48:40;;;;;;;6.93;5.63;;;;;;;;;;5015732;28;20092;-94
2022/05/12 04:51:11;;;;;;;14.63;5.00;;;;;;;;;;5014829;28;20104;-93
2022/05/12 04:53:38;;;;;;;11.05;4.38;;;;;;;;;;5015761;28;20508;-94
2022/05/12 04:56:06;;;;;;;10.05;3.83;;;;;;;;;;5014368;28;20498;-92
2022/05/12 04:58:33;;;;;;;8.57;3.90;;;;;;;;;;5015638;28;20100;-94
2022/05/12 05:01:00;;;;;;;10.95;4.20;;;;;;;;;;5015784;28;20584;-94
2022/05/12 05:03:27;;;;;;;9.55;3.88;;;;;;;;;;5015770;28;20495;-93
2022/05/12 05:05:55;;;;;;;10.85;4.57;;;;;;;;;;5024857;28;20033;-92
2022/05/12 05:08:23;;;;;;;9.07;4.50;;;;;;;;;;5032274;28;20054;-94
2022/05/12 05:10:53;;;;;;;13.55;4.97;;;;;;;;;;5016357;28;20050;-95
2022/05/12 05:13:34;;;;;;;17.75;4.25;;;;;;;;;;5013748;28;20100;-93
2022/05/12 05:16:02;;;;;;;15.43;3.00;;;;;;;;;;5013864;28;20054;-92
2022/05/12 05:18:29;;;;;;;6.57;2.75;;;;;;;;;;5014256;28;20057;-93
2022/05/12 05:20:57;;;;;;;18.35;3.47;;;;;;;;;;5014494;28;20128;-94
2022/05/12 05:23:24;;;;;;;14.63;3.30;;;;;;;;;;5013863;28;20078;-94
2022/05/12 05:25:53;;;;;;;12.70;3.30;;;;;;;;;;5013945;28;20054;-94
2022/05/12 05:28:21;;;;;;;11.80;3.10;;;;;;;;;;5013627;28;20133;-94
2022/05/12 05:30:50;;;;;;;14.68;3.03;;;;;;;;;;5014461;28;20081;-94
2022/05/12 05:33:20;;;;;;;7.47;2.72;;;;;;;;;;5003840;28;20648;-94
2022/05/12 05:35:48;;;;;;;11.65;4.03;;;;;;;;;;5010901;28;20073;-95
2022/05/12 05:38:16;;;;;;;7.15;2.22;;;;;;;;;;5013558;28;20065;-94
2022/05/12 05:40:43;;;;;;;10.13;3.78;;;;;;;;;;5014355;28;20049;-93
2022/05/12 05:43:13;;;;;;;19.48;3.55;;;;;;;;;;5013676;28;20096;-94
2022/05/12 05:45:41;;;;;;;13.98;3.85;;;;;;;;;;5013940;28;20056;-94
2022/05/12 05:48:10;;;;;;;22.13;3.42;;;;;;;;;;5014591;28;20058;-94
2022/05/12 05:53:39;;;;;;;5.20;1.50;;;;;;;;;;5016723;28;20054;-94
2022/05/12 05:56:14;;;;;;;2.45;1.40;;;;;;;;;;5014980;28;20045;-94
2022/05/12 05:58:43;;;;;;;4.22;1.33;;;;;;;;;;5016918;28;20384;-95
2022/05/12 06:01:10;;;;;;;3.65;1.20;;;;;;;;;;5014096;28;20533;-90
2022/05/12 06:03:39;;;;;;;3.50;1.10;;;;;;;;;;5013324;28;20052;-95
2022/05/12 06:06:06;;;;;;;6.93;1.17;;;;;;;;;;5013138;28;20053;-95
2022/05/12 06:08:34;;;;;;;9.60;1.10;;;;;;;;;;5014351;28;20107;-94
2022/05/12 06:11:04;;;;;;;7.63;0.90;;;;;;;;;;5013441;28;20546;-93
2022/05/12 06:13:32;;;;;;;3.47;1.00;;;;;;;;;;5013351;28;20046;-92
2022/05/12 06:15:59;;;;;;;3.53;1.00;;;;;;;;;;5012797;28;20116;-95
2022/05/12 06:18:27;;;;;;;7.20;1.00;;;;;;;;;;5012954;28;20132;-92
2022/05/12 06:20:54;;;;;;;5.00;1.00;;;;;;;;;;5012675;28;20058;-93
2022/05/12 06:23:21;;;;;;;31.40;2.35;;;;;;;;;;4994229;28;20093;-96
2022/05/12 06:25:48;;;;;;;13.27;1.30;;;;;;;;;;4995007;28;20077;-93
2022/05/12 06:28:15;;;;;;;7.10;1.23;;;;;;;;;;4997043;28;20081;-95
2022/05/12 06:30:43;;;;;;;4.63;0.98;;;;;;;;;;4997590;28;20140;-93
2022/05/12 06:33:16;;;;;;;4.85;1.00;;;;;;;;;;4994827;28;20123;-94
2022/05/12 06:35:55;;;;;;;2.50;0.80;;;;;;;;;;4996698;28;20142;-95
2022/05/12 06:38:27;;;;;;;2.50;1.00;;;;;;;;;;5000657;28;20109;-94
2022/05/12 06:40:55;;;;;;;1.58;1.00;;;;;;;;;;4997880;28;20073;-94
2022/05/12 06:43:23;;;;;;;4.10;1.17;;;;;;;;;;4996031;28;20093;-94
2022/05/12 06:45:50;;;;;;;2.28;0.65;;;;;;;;;;4997291;28;20062;-94
2022/05/12 06:48:20;;;;;;;7.70;0.88;;;;;;;;;;4996530;28;20146;-95
2022/05/12 06:50:47;;;;;;;7.90;1.10;;;;;;;;;;4996606;28;20511;-95
2022/05/12 06:53:15;;;;;;;7.13;1.50;;;;;;;;;;4995276;28;20490;-93
2022/05/12 06:55:42;;;;;;;5.18;0.80;;;;;;;;;;4995164;28;20058;-96
2022/05/12 06:58:11;;;;;;;11.57;0.93;;;;;;;;;;4994518;28;20054;-94
2022/05/12 07:00:38;;;;;;;6.88;1.30;;;;;;;;;;4995161;28;20092;-95
2022/05/12 07:03:06;;;;;;;5.40;0.90;;;;;;;;;;4994512;28;20054;-91
2022/05/12 07:05:34;;;;;;;2.83;1.10;;;;;;;;;;4995979;28;20058;-92
2022/05/12 07:08:04;;;;;;;4.47;1.15;;;;;;;;;;4994082;28;20054;-95
2022/05/12 07:10:31;;;;;;;6.25;0.90;;;;;;;;;;4993569;28;20162;-92
2022/05/12 07:12:59;;;;;;;5.72;0.93;;;;;;;;;;4994859;28;20086;-94
2022/05/12 07:15:28;;;;;;;3.88;0.70;;;;;;;;;;4997183;28;20054;-94
2022/05/12 07:17:56;;;;;;;3.53;0.88;;;;;;;;;;4997372;28;20454;-94
2022/05/12 07:28:43;;;;;;;7.80;1.90;;;;;;;;;;5000723;28;20554;-94
2022/05/12 07:31:11;;;;;;;8.80;2.10;;;;;;;;;;4995924;28;20078;-89
2022/05/12 07:33:42;;;;;;;8.68;2.33;;;;;;;;;;4996455;28;20054;-93
2022/05/12 07:36:14;;;;;;;4.15;1.73;;;;;;;;;;4997058;28;20134;-95
2022/05/12 07:38:42;;;;;;;6.10;1.77;;;;;;;;;;4997560;28;20058;-96
2022/05/12 07:41:12;;;;;;;5.85;1.50;;;;;;;;;;4997018;28;20069;-96
2022/05/12 07:43:40;;;;;;;3.17;1.80;;;;;;;;;;4996914;28;20061;-92
2022/05/12 07:46:07;;;;;;;6.68;1.77;;;;;;;;;;4996233;28;20141;-89
2022/05/12 07:48:35;;;;;;;5.60;1.80;;;;;;;;;;4997080;28;20070;-89
2022/05/12 07:51:02;;;;;;;4.93;2.20;;;;;;;;;;4996069;28;20046;-89
2022/05/12 07:53:29;;;;;;;7.38;2.22;;;;;;;;;;4996148;28;20081;-91
2022/05/12 07:55:57;;;;;;;5.60;2.40;;;;;;;;;;4996404;28;20157;-91
2022/05/12 07:58:24;;;;;;;5.40;2.28;;;;;;;;;;4996109;28;20042;-91
2022/05/12 08:00:53;;;;;;;3.90;2.13;;;;;;;;;;4996457;28;20145;-92
2022/05/12 08:03:22;;;;;;;6.82;2.50;;;;;;;;;;4996375;28;20050;-91
2022/05/12 08:05:50;;;;;;;4.47;2.25;;;;;;;;;;4996211;28;20054;-94
2022/05/12 08:08:17;;;;;;;4.97;1.73;;;;;;;;;;4996018;28;20092;-95
2022/05/12 08:10:44;;;;;;;7.80;2.65;;;;;;;;;;4996131;28;20142;-91
2022/05/12 08:13:16;;;;;;;3.72;2.00;;;;;;;;;;4995987;28;20372;-90
2022/05/12 08:15:43;;;;;;;2.85;1.63;;;;;;;;;;4995557;28;20396;-89
2022/05/12 08:18:11;;;;;;;3.03;1.92;;;;;;;;;;4995851;28;20093;-92
2022/05/12 08:20:39;;;;;;;6.03;1.85;;;;;;;;;;4995722;28;20478;-91
2022/05/12 08:23:06;;;;;;;4.63;1.35;;;;;;;;;;4995850;28;20133;-93
2022/05/12 08:25:33;;;;;;;8.18;1.90;;;;;;;;;;4995203;28;20054;-91
2022/05/12 08:28:00;;;;;;;7.03;1.73;;;;;;;;;;4995772;28;20085;-89
2022/05/12 08:30:29;;;;;;;8.85;1.42;;;;;;;;;;4995613;28;20146;-92
2022/05/12 08:32:57;;;;;;;5.43;2.10;;;;;;;;;;4995537;28;20064;-91
2022/05/12 08:35:25;;;;;;;5.97;1.63;;;;;;;;;;4995633;28;20489;-89
2022/05/12 08:37:52;;;;;;;5.97;1.50;;;;;;;;;;4995455;28;20057;-92
2022/05/12 08:40:32;;;;;;;6.00;1.65;;;;;;;;;;4995618;28;20149;-91
2022/05/12 08:43:05;;;;;;;8.27;1.30;;;;;;;;;;4995709;28;20138;-93
2022/05/12 08:45:34;;;;;;;10.38;1.42;;;;;;;;;;4995378;28;20046;-90
2022/05/12 08:48:01;;;;;;;3.65;1.40;;;;;;;;;;4995439;28;20104;-91
2022/05/12 08:50:30;;;;;;;6.85;1.40;;;;;;;;;;4994780;28;20073;-92
2022/05/12 08:53:01;;;;;;;3.58;1.80;;;;;;;;;;4995285;28;20073;-91
2022/05/12 08:55:29;;;;;;;2.30;1.50;;;;;;;;;;4994806;28;20090;-90
2022/05/12 08:58:08;;;;;;;3.42;1.65;;;;;;;;;;4995118;28;20471;-90
2022/05/12 09:00:41;;;;;;;5.53;1.50;;;;;;;;;;4995190;28;20141;-91
2022/05/12 09:03:08;;;;;;;3.07;1.27;;;;;;;;;;4995092;28;20129;-92
2022/05/12 09:05:40;;;;;;;5.45;1.35;;;;;;;;;;4995158;28;20074;-90
2022/05/12 09:08:26;;;;;;;2.28;1.27;;;;;;;;;;4995003;28;20533;-92
2022/05/12 09:10:59;;;;;;;3.38;1.35;;;;;;;;;;4994839;28;20042;-92
2022/05/12 09:13:32;;;;;;;5.63;1.47;;;;;;;;;;4994718;28;20149;-88
2022/05/12 09:16:19;;;;;;;5.40;1.25;;;;;;;;;;4994495;28;20333;-88
2022/05/12 09:18:46;;;;;;;8.15;1.65;;;;;;;;;;4994417;28;20414;-90
2022/05/12 09:21:16;;;;;;;2.60;1.50;;;;;;;;;;4994922;28;20069;-90
2022/05/12 09:23:43;;;;;;;1.13;0.85;;;;;;;;;;4994772;28;20085;-91
2022/05/12 09:26:29;;;;;;;6.88;1.20;;;;;;;;;;4994497;28;20465;-87
2022/05/12 09:29:10;;;;;;;5.65;1.10;;;;;;;;;;4994547;28;20477;-90
2022/05/12 09:31:38;;;;;;;10.65;1.63;;;;;;;;;;4994447;28;20617;-92
2022/05/12 09:34:30;;;;;;;5.13;1.30;;;;;;;;;;4994299;28;20501;-85
2022/05/12 09:36:58;;;;;;;2.85;1.52;;;;;;;;;;4993809;28;20141;-88
2022/05/12 09:39:31;;;;;;;7.63;1.88;;;;;;;;;;4994183;28;20081;-85
2022/05/12 09:42:00;;;;;;;2.67;1.50;;;;;;;;;;5008537;28;20054;-89
2022/05/12 09:44:28;;;;;;;3.05;1.10;;;;;;;;;;5002693;28;20061;-89
2022/05/12 09:47:02;;;;;;;7.70;1.70;;;;;;;;;;4994220;28;20109;-90
2022/05/12 09:49:31;;;;;;;3.53;1.15;;;;;;;;;;4994296;28;20117;-93
2022/05/12 09:52:18;;;;;;;2.80;1.08;;;;;;;;;;4993719;28;20130;-89
2022/05/12 09:54:46;;;;;;;3.70;1.10;;;;;;;;;;4993812;28;20054;-92
2022/05/12 09:57:20;;;;;;;6.13;1.00;;;;;;;;;;4994255;28;20133;-93
2022/05/12 09:59:56;;;;;;;2.72;1.33;;;;;;;;;;4994359;28;20073;-91
2022/05/12 10:08:11;;;;;;;5.93;0.80;;;;;;;;;;4995083;28;20473;-87
2022/05/12 10:10:38;;;;;;;5.28;0.80;;;;;;;;;;4994220;28;20150;-91
2022/05/12 10:13:13;;;;;;;2.45;0.77;;;;;;;;;;4993748;28;20499;-91
2022/05/12 10:15:43;;;;;;;4.10;0.82;;;;;;;;;;4993285;28;20494;-93
2022/05/12 10:18:10;;;;;;;4.90;0.88;;;;;;;;;;4994268;28;20050;-93
2022/05/12 10:20:41;;;;;;;3.75;0.90;;;;;;;;;;4994080;28;20057;-91
2022/05/12 10:23:08;;;;;;;2.08;0.60;;;;;;;;;;4993913;28;20074;-90
2022/05/12 10:25:35;;;;;;;4.72;0.90;;;;;;;;;;4993643;28;20081;-89
2022/05/12 10:28:16;;;;;;;7.75;0.93;;;;;;;;;;4994146;28;20146;-90
2022/05/12 10:30:48;;;;;;;1.70;0.63;;;;;;;;;;4993493;28;20062;-88
2022/05/12 10:33:21;;;;;;;1.40;0.60;;;;;;;;;;4993850;28;20046;-92
2022/05/12 10:35:57;;;;;;;6.10;1.00;;;;;;;;;;4992871;28;20142;-90
2022/05/12 10:38:32;;;;;;;4.82;0.80;;;;;;;;;;4993774;28;20129;-90
2022/05/12 10:41:29;;;;;;;2.28;0.95;;;;;;;;;;4994373;28;20082;-94
2022/05/12 10:44:13;;;;;;;3.00;1.00;;;;;;;;;;4995017;28;20078;-89
2022/05/12 10:47:08;;;;;;;3.95;0.80;;;;;;;;;;4993885;28;20141;-93
2022/05/12 10:49:44;;;;;;;6.60;1.25;;;;;;;;;;5003322;28;20089;-95
2022/05/12 10:52:24;;;;;;;5.90;0.90;;;;;;;;;;5004646;28;20130;-96
2022/05/12 10:55:10;;;;;;;3.63;0.90;;;;;;;;;;4998182;28;20133;-94
2022/05/12 10:57:47;;;;;;;4.05;1.15;;;;;;;;;;4999231;28;20049;-95
2022/05/12 11:00:15;;;;;;;3.17;0.70;;;;;;;;;;4997987;28;20056;-92
2022/05/12 11:02:44;;;;;;;6.43;0.70;;;;;;;;;;4997742;28;20073;-92
2022/05/12 11:05:30;;;;;;;2.38;0.80;;;;;;;;;;4997528;28;20074;-90
2022/05/12 11:08:01;;;;;;;2.42;0.80;;;;;;;;;;4997018;28;20491;-90
2022/05/12 11:10:28;;;;;;;2.97;0.98;;;;;;;;;;4997476;28;20469;-91
2022/05/12 11:13:18;;;;;;;3.33;0.88;;;;;;;;;;4997829;28;20137;-92
2022/05/12 11:15:56;;;;;;;1.88;0.60;;;;;;;;;;4991466;28;20058;-91
2022/05/12 11:18:35;;;;;;;8.30;1.40;;;;;;;;;;4996676;28;20077;-91
2022/05/12 11:21:11;;;;;;;3.63;0.70;;;;;;;;;;4997821;28;20050;-91
2022/05/12 11:23:47;;;;;;;9.75;1.08;;;;;;;;;;4996840;28;20053;-93
2022/05/12 11:26:27;;;;;;;8.70;1.35;;;;;;;;;;4996752;28;20051;-92
2022/05/12 11:32:04;;;;;;;3.60;0.80;;;;;;;;;;4999360;28;20066;-89
2022/05/12 11:34:32;;;;;;;4.03;0.80;;;;;;;;;;4997946;28;20132;-89
2022/05/12 11:37:19;;;;;;;2.70;0.82;;;;;;;;;;4998475;28;20137;-88
2022/05/12 11:39:54;;;;;;;2.95;0.95;;;;;;;;;;4998013;28;20042;-89
2022/05/12 11:42:23;;;;;;;11.88;1.25;;;;;;;;;;4998382;28;20077;-88
2022/05/12 11:44:56;;;;;;;3.72;1.17;;;;;;;;;;4996923;28;20054;-91
2022/05/12 11:47:33;;;;;;;3.95;1.00;;;;;;;;;;4997342;28;20057;-92
2022/05/12 11:50:09;;;;;;;2.30;1.00;;;;;;;;;;4997591;28;20117;-88
2022/05/12 11:52:53;;;;;;;2.33;0.82;;;;;;;;;;4997917;28;20089;-90
2022/05/12 11:55:23;;;;;;;7.13;0.93;;;;;;;;;;4997224;28;20141;-90
2022/05/12 11:58:04;;;;;;;3.03;0.80;;;;;;;;;;4998094;28;20077;-93
2022/05/12 12:00:34;;;;;;;6.78;1.20;;;;;;;;;;5004124;28;20100;-90
2022/05/12 12:03:25;;;;;;;5.63;1.02;;;;;;;;;;4998368;28;20137;-90
2022/05/12 12:05:52;;;;;;;4.97;1.17;;;;;;;;;;4996395;28;20069;-90
2022/05/12 12:08:38;;;;;;;1.50;0.80;;;;;;;;;;4995875;28;20072;-87
2022/05/12 12:11:14;;;;;;;11.68;1.10;;;;;;;;;;4995742;28;20131;-88
2022/05/12 12:13:49;;;;;;;7.03;1.58;;;;;;;;;;4995664;28;20437;-87
2022/05/12 12:16:18;;;;;;;3.72;1.10;;;;;;;;;;4995044;28;20089;-91
2022/05/12 12:18:48;;;;;;;2.35;0.70;;;;;;;;;;4995735;28;20122;-89
2022/05/12 12:21:35;;;;;;;3.20;0.82;;;;;;;;;;4995837;28;20058;-89
2022/05/12 12:24:18;;;;;;;1.35;0.73;;;;;;;;;;4995640;28;20061;-91
2022/05/12 12:26:49;;;;;;;21.73;1.52;;;;;;;;;;4995520;28;20081;-87
2022/05/12 12:29:17;;;;;;;14.30;1.38;;;;;;;;;;4995124;28;20086;-89
2022/05/12 12:31:48;;;;;;;3.00;0.80;;;;;;;;;;4996464;28;20054;-89
2022/05/12 12:34:23;;;;;;;3.75;1.00;;;;;;;;;;4994719;28;20129;-92
2022/05/12 12:37:05;;;;;;;5.43;0.90;;;;;;;;;;4995331;28;20060;-90
2022/05/12 12:39:35;;;;;;;21.08;1.65;;;;;;;;;;4995392;28;20070;-90
2022/05/12 12:42:19;;;;;;;1.80;0.60;;;;;;;;;;4995175;28;20133;-89
2022/05/12 12:44:50;;;;;;;2.70;0.88;;;;;;;;;;4995824;28;20054;-84
2022/05/12 12:47:36;;;;;;;12.77;1.27;;;;;;;;;;4994649;28;20050;-92
2022/05/12 12:50:03;;;;;;;16.20;2.00;;;;;;;;;;4994904;28;20141;-89
2022/05/12 12:52:30;;;;;;;8.23;0.75;;;;;;;;;;4995708;28;20046;-89
2022/05/12 12:57:48;;;;;;;5.38;0.60;;;;;;;;;;4995840;28;20090;-88
2022/05/12 13:00:23;;;;;;;2.22;0.63;;;;;;;;;;4995052;28;20458;-95
2022/05/12 13:02:55;;;;;;;3.78;0.75;;;;;;;;;;4995287;28;20050;-90
2022/05/12 13:05:24;;;;;;;2.15;0.70;;;;;;;;;;4995041;28;20141;-92
2022/05/12 13:07:59;;;;;;;14.27;1.38;;;;;;;;;;4995347;28;20058;-89
2022/05/12 13:10:28;;;;;;;14.73;1.00;;;;;;;;;;4994176;28;20054;-94
2022/05/12 13:13:03;;;;;;;0.90;0.80;;;;;;;;;;4996172;28;20141;-91
2022/05/12 13:15:32;;;;;;;9.30;0.70;;;;;;;;;;4994865;28;20089;-90
2022/05/12 13:18:07;;;;;;;3.10;0.82;;;;;;;;;;4994818;28;20109;-89
2022/05/12 13:20:54;;;;;;;1.63;0.50;;;;;;;;;;4994564;28;20046;-86
2022/05/12 13:23:26;;;;;;;4.70;0.80;;;;;;;;;;4994587;28;20141;-89
2022/05/12 13:25:53;;;;;;;3.17;0.80;;;;;;;;;;4994670;28;20138;-94
2022/05/12 13:28:25;;;;;;;4.38;0.90;;;;;;;;;;4994446;28;20054;-89
2022/05/12 13:31:10;;;;;;;3.15;0.50;;;;;;;;;;4994673;28;20092;-92
2022/05/12 13:33:38;;;;;;;14.02;1.13;;;;;;;;;;4993866;28;20112;-88
2022/05/12 13:36:08;;;;;;;5.15;1.13;;;;;;;;;;4994043;28;20060;-89
2022/05/12 13:38:44;;;;;;;4.03;0.90;;;;;;;;;;4994309;28;20046;-87
2022/05/12 13:41:20;;;;;;;2.65;0.73;;;;;;;;;;4994030;28;20494;-93
2022/05/12 13:43:51;;;;;;;1.88;0.60;;;;;;;;;;4994342;28;20571;-89
2022/05/12 13:46:18;;;;;;;2.17;0.68;;;;;;;;;;4993928;28;20145;-91
2022/05/12 13:49:05;;;;;;;3.05;0.70;;;;;;;;;;4994145;28;20046;-89
2022/05/12 13:51:39;;;;;;;1.60;0.60;;;;;;;;;;4994374;28;20141;-90
2022/05/12 13:54:28;;;;;;;4.80;0.80;;;;;;;;;;4993492;28;20066;-92
2022/05/12 13:57:13;;;;;;;5.72;0.60;;;;;;;;;;4994348;28;20054;-87
2022/05/12 13:59:50;;;;;;;6.57;1.10;;;;;;;;;;4994293;28;20089;-88
2022/05/12 14:02:19;;;;;;;1.08;0.63;;;;;;;;;;4994003;28;20562;-94
2022/05/12 14:04:48;;;;;;;3.95;0.80;;;;;;;;;;4994242;28;20057;-93
2022/05/12 14:07:25;;;;;;;2.25;0.80;;;;;;;;;;4993850;28;20473;-92
2022/05/12 14:09:55;;;;;;;2.47;0.80;;;;;;;;;;4994406;28;20546;-93
2022/05/12 14:21:00;;;;;;;2.92;0.98;;;;;;;;;;4994285;28;20434;-92
2022/05/12 14:23:27;;;;;;;3.40;0.68;;;;;;;;;;4993489;28;20495;-90
2022/05/12 14:25:54;;;;;;;4.70;1.02;;;;;;;;;;4993779;28;20456;-95
2022/05/12 14:28:22;;;;;;;4.50;0.73;;;;;;;;;;4993544;28;20531;-93
2022/05/12 14:30:49;;;;;;;4.47;0.82;;;;;;;;;;4993689;28;20080;-90
2022/05/12 14:33:18;;;;;;;3.85;0.70;;;;;;;;;;4992902;28;20062;-89
2022/05/12 14:35:45;;;;;;;3.72;0.93;;;;;;;;;;4993220;28;20473;-95
2022/05/12 14:38:12;;;;;;;2.45;0.80;;;;;;;;;;4993291;28;20066;-90
2022/05/12 14:40:40;;;;;;;5.72;1.05;;;;;;;;;;4993381;28;20053;-94
2022/05/12 14:43:08;;;;;;;10.05;1.00;;;;;;;;;;4993461;28;20073;-88
2022/05/12 14:45:35;;;;;;;2.60;0.70;;;;;;;;;;4993523;28;20066;-90
2022/05/12 14:48:05;;;;;;;10.75;0.95;;;;;;;;;;4993839;28;20054;-92
2022/05/12 14:50:32;;;;;;;2.90;0.55;;;;;;;;;;4993484;28;20519;-90
2022/05/12 14:53:00;;;;;;;11.32;1.20;;;;;;;;;;4994164;28;20137;-92
2022/05/12 14:55:28;;;;;;;7.57;1.15;;;;;;;;;;4994131;28;20046;-86
2022/05/12 14:57:55;;;;;;;12.93;1.40;;;;;;;;;;4993931;28;20103;-88
2022/05/12 15:00:22;;;;;;;2.40;0.65;;;;;;;;;;4994560;28;20089;-91
2022/05/12 15:02:49;;;;;;;4.05;0.60;;;;;;;;;;4994162;28;20046;-94
2022/05/12 15:05:24;;;;;;;3.17;0.75;;;;;;;;;;4996712;28;20046;-90
2022/05/12 15:07:51;;;;;;;6.90;0.88;;;;;;;;;;5001735;28;20050;-93
2022/05/12 15:10:21;;;;;;;8.57;2.00;;;;;;;;;;4996664;28;20108;-91
2022/05/12 15:12:49;;;;;;;2.42;0.80;;;;;;;;;;4995246;28;20050;-90
2022/05/12 15:15:16;;;;;;;5.50;0.98;;;;;;;;;;4992459;28;20074;-90
2022/05/12 15:17:44;;;;;;;6.03;0.80;;;;;;;;;;4993333;28;20073;-89
2022/05/12 15:20:14;;;;;;;1.08;0.77;;;;;;;;;;4993253;28;20061;-91
2022/05/12 15:22:42;;;;;;;6.38;0.68;;;;;;;;;;4977336;28;20062;-89
2022/05/12 15:25:11;;;;;;;4.03;0.93;;;;;;;;;;4992823;28;20104;-96
2022/05/12 15:27:39;;;;;;;6.45;1.05;;;;;;;;;;4993195;28;20081;-90
2022/05/12 15:30:10;;;;;;;1.52;0.45;;;;;;;;;;4994732;28;20588;-92
2022/05/12 15:32:38;;;;;;;9.35;1.20;;;;;;;;;;4992960;28;20460;-91
2022/05/12 15:35:06;;;;;;;3.60;0.70;;;;;;;;;;4997079;28;20137;-91
2022/05/12 15:37:33;;;;;;;2.75;0.60;;;;;;;;;;4996953;28;20133;-91